sensor_id;sensor_type;location;lat;lon;timestamp;pressure;altitude;pressure_sealevel;temperature;humidity
37610;BME280;23457;51.966;8.230;2022-10-16T00:02:21;100409.28;;;14.60;100.00
37610;BME280;23457;51.966;8.230;2022-10-16T00:04:48;100395.31;;;14.61;100.00
37610;BME280;23457;51.966;8.230;2022-10-16T00:07:14;100415.34;;;14.68;100.00
37610;BME280;23457;51.966;8.230;2022-10-16T00:09:41;100402.31;;;14.61;100.00
37610;BME280;23457;51.966;8.230;2022-10-16T00:12:08;100390.97;;;14.60;100.00
37610;BME280;23457;51.966;8.230;2022-10-16T00:14:34;100393.59;;;14.62;100.00
37610;BME280;23457;51.966;8.230;2022-10-16T00:17:01;100399.69;;;14.59;100.00
37610;BME280;23457;51.966;8.230;2022-10-16T00:19:28;100416.25;;;14.64;100.00
37610;BME280;23457;51.966;8.230;2022-10-16T00:21:55;100424.09;;;14.58;100.00
37610;BME280;23457;51.966;8.230;2022-10-16T00:24:22;100417.97;;;14.65;100.00
37610;BME280;23457;51.966;8.230;2022-10-16T00:26:49;100405.78;;;14.58;100.00
37610;BME280;23457;51.966;8.230;2022-10-16T00:29:17;100407.53;;;14.59;100.00
37610;BME280;23457;51.966;8.230;2022-10-16T00:31:43;100398.88;;;14.45;100.00
37610;BME280;23457;51.966;8.230;2022-10-16T00:34:10;100400.63;;;14.54;100.00
37610;BME280;23457;51.966;8.230;2022-10-16T00:36:37;100398.88;;;14.51;100.00
37610;BME280;23457;51.966;8.230;2022-10-16T00:39:04;100416.25;;;14.58;100.00
37610;BME280;23457;51.966;8.230;2022-10-16T00:41:31;100404.91;;;14.64;100.00
37610;BME280;23457;51.966;8.230;2022-10-16T00:44:00;100408.41;;;14.60;100.00
37610;BME280;23457;51.966;8.230;2022-10-16T00:46:37;100418.94;;;14.46;100.00
37610;BME280;23457;51.966;8.230;2022-10-16T00:49:14;100425.03;;;14.45;100.00
37610;BME280;23457;51.966;8.230;2022-10-16T00:51:45;100412.88;;;14.41;100.00
37610;BME280;23457;51.966;8.230;2022-10-16T00:54:28;100411.09;;;14.45;100.00
37610;BME280;23457;51.966;8.230;2022-10-16T00:57:01;100395.44;;;14.40;100.00
37610;BME280;23457;51.966;8.230;2022-10-16T00:59:32;100418.97;;;14.40;100.00
37610;BME280;23457;51.966;8.230;2022-10-16T01:02:00;100419.84;;;14.44;100.00
37610;BME280;23457;51.966;8.230;2022-10-16T01:04:39;100426.81;;;14.40;100.00
37610;BME280;23457;51.966;8.230;2022-10-16T01:07:16;100432.88;;;14.39;100.00
37610;BME280;23457;51.966;8.230;2022-10-16T01:10:28;100440.72;;;14.36;100.00
37610;BME280;23457;51.966;8.230;2022-10-16T01:13:06;100431.19;;;14.40;100.00
37610;BME280;23457;51.966;8.230;2022-10-16T01:15:48;100433.75;;;14.44;100.00
37610;BME280;23457;51.966;8.230;2022-10-16T01:18:28;100432.91;;;14.41;100.00
37610;BME280;23457;51.966;8.230;2022-10-16T01:21:06;100419.81;;;14.36;100.00
37610;BME280;23457;51.966;8.230;2022-10-16T01:23:54;100436.38;;;14.35;100.00
37610;BME280;23457;51.966;8.230;2022-10-16T01:31:33;100439.03;;;14.29;100.00
37610;BME280;23457;51.966;8.230;2022-10-16T01:34:15;100442.53;;;14.25;100.00
37610;BME280;23457;51.966;8.230;2022-10-16T01:37:10;100431.25;;;14.14;100.00
37610;BME280;23457;51.966;8.230;2022-10-16T01:39:40;100445.13;;;14.22;100.00
37610;BME280;23457;51.966;8.230;2022-10-16T01:42:16;100454.72;;;14.20;100.00
37610;BME280;23457;51.966;8.230;2022-10-16T01:44:45;100436.44;;;14.21;100.00
37610;BME280;23457;51.966;8.230;2022-10-16T01:47:14;100443.44;;;14.16;100.00
37610;BME280;23457;51.966;8.230;2022-10-16T01:49:42;100445.19;;;14.16;100.00
37610;BME280;23457;51.966;8.230;2022-10-16T01:52:13;100439.03;;;14.20;100.00
37610;BME280;23457;51.966;8.230;2022-10-16T01:54:43;100440.81;;;14.09;100.00
37610;BME280;23457;51.966;8.230;2022-10-16T01:57:12;100435.63;;;14.06;100.00
37610;BME280;23457;51.966;8.230;2022-10-16T01:59:44;100442.56;;;14.16;100.00
37610;BME280;23457;51.966;8.230;2022-10-16T02:02:12;100441.69;;;14.09;100.00
37610;BME280;23457;51.966;8.230;2022-10-16T02:04:55;100442.56;;;14.07;100.00
37610;BME280;23457;51.966;8.230;2022-10-16T02:07:24;100441.72;;;14.00;100.00
37610;BME280;23457;51.966;8.230;2022-10-16T02:09:50;100433.00;;;13.93;100.00
37610;BME280;23457;51.966;8.230;2022-10-16T02:12:27;100437.38;;;13.96;100.00
37610;BME280;23457;51.966;8.230;2022-10-16T02:14:55;100439.13;;;13.86;100.00
37610;BME280;23457;51.966;8.230;2022-10-16T02:17:22;100444.34;;;13.86;100.00
37610;BME280;23457;51.966;8.230;2022-10-16T02:19:51;100440.88;;;13.84;100.00
37610;BME280;23457;51.966;8.230;2022-10-16T02:22:27;100442.63;;;13.91;100.00
37610;BME280;23457;51.966;8.230;2022-10-16T02:25:23;100439.13;;;13.91;100.00
37610;BME280;23457;51.966;8.230;2022-10-16T02:28:05;100437.41;;;13.87;100.00
37610;BME280;23457;51.966;8.230;2022-10-16T02:30:39;100440.91;;;13.80;100.00
37610;BME280;23457;51.966;8.230;2022-10-16T02:33:10;100444.38;;;13.74;100.00
37610;BME280;23457;51.966;8.230;2022-10-16T02:35:40;100440.88;;;13.69;100.00
37610;BME280;23457;51.966;8.230;2022-10-16T02:38:09;100445.25;;;13.69;100.00
37610;BME280;23457;51.966;8.230;2022-10-16T02:40:36;100447.00;;;13.74;100.00
37610;BME280;23457;51.966;8.230;2022-10-16T02:43:04;100461.78;;;13.72;100.00
37610;BME280;23457;51.966;8.230;2022-10-16T02:45:31;100445.25;;;13.70;100.00
37610;BME280;23457;51.966;8.230;2022-10-16T02:47:58;100452.22;;;13.71;100.00
37610;BME280;23457;51.966;8.230;2022-10-16T02:50:25;100453.97;;;13.68;100.00
37610;BME280;23457;51.966;8.230;2022-10-16T02:52:51;100432.22;;;13.64;100.00
37610;BME280;23457;51.966;8.230;2022-10-16T02:55:18;100453.09;;;13.58;100.00
37610;BME280;23457;51.966;8.230;2022-10-16T02:57:44;100457.44;;;13.56;100.00
37610;BME280;23457;51.966;8.230;2022-10-16T03:00:15;100460.06;;;13.62;100.00
37610;BME280;23457;51.966;8.230;2022-10-16T03:02:42;100464.41;;;13.63;100.00
37610;BME280;23457;51.966;8.230;2022-10-16T03:05:09;100461.81;;;13.63;100.00
37610;BME280;23457;51.966;8.230;2022-10-16T03:07:36;100458.31;;;13.64;100.00
37610;BME280;23457;51.966;8.230;2022-10-16T03:10:03;100460.03;;;13.68;100.00
37610;BME280;23457;51.966;8.230;2022-10-16T03:12:30;100465.25;;;13.68;100.00
37610;BME280;23457;51.966;8.230;2022-10-16T03:14:57;100463.56;;;13.67;100.00
37610;BME280;23457;51.966;8.230;2022-10-16T03:17:24;100460.03;;;13.68;100.00
37610;BME280;23457;51.966;8.230;2022-10-16T03:19:51;100454.84;;;13.65;100.00
37610;BME280;23457;51.966;8.230;2022-10-16T03:22:18;100447.00;;;13.65;100.00
37610;BME280;23457;51.966;8.230;2022-10-16T03:24:44;100454.81;;;13.71;100.00
37610;BME280;23457;51.966;8.230;2022-10-16T03:27:11;100440.03;;;13.72;100.00
37610;BME280;23457;51.966;8.230;2022-10-16T03:29:38;100443.53;;;13.66;100.00
37610;BME280;23457;51.966;8.230;2022-10-16T03:32:04;100453.06;;;13.70;100.00
37610;BME280;23457;51.966;8.230;2022-10-16T03:34:31;100451.38;;;13.68;100.00
37610;BME280;23457;51.966;8.230;2022-10-16T03:36:58;100457.44;;;13.76;100.00
37610;BME280;23457;51.966;8.230;2022-10-16T03:39:24;100449.59;;;13.77;100.00
37610;BME280;23457;51.966;8.230;2022-10-16T03:41:51;100458.31;;;13.75;100.00
37610;BME280;23457;51.966;8.230;2022-10-16T03:44:17;100467.03;;;13.78;100.00
37610;BME280;23457;51.966;8.230;2022-10-16T03:46:44;100458.31;;;13.79;100.00
37610;BME280;23457;51.966;8.230;2022-10-16T03:49:11;100457.44;;;13.77;100.00
37610;BME280;23457;51.966;8.230;2022-10-16T03:51:38;100467.88;;;13.73;100.00
37610;BME280;23457;51.966;8.230;2022-10-16T03:54:04;100457.44;;;13.77;100.00
37610;BME280;23457;51.966;8.230;2022-10-16T03:56:31;100453.94;;;13.86;100.00
37610;BME280;23457;51.966;8.230;2022-10-16T03:58:58;100453.91;;;13.95;100.00
37610;BME280;23457;51.966;8.230;2022-10-16T04:01:24;100453.03;;;14.02;100.00
37610;BME280;23457;51.966;8.230;2022-10-16T04:03:51;100456.53;;;13.81;100.00
37610;BME280;23457;51.966;8.230;2022-10-16T04:06:17;100450.47;;;13.90;100.00
37610;BME280;23457;51.966;8.230;2022-10-16T04:08:44;100452.19;;;13.88;100.00
37610;BME280;23457;51.966;8.230;2022-10-16T04:11:11;100450.47;;;13.79;100.00
37610;BME280;23457;51.966;8.230;2022-10-16T04:13:38;100453.94;;;13.92;100.00
37610;BME280;23457;51.966;8.230;2022-10-16T04:16:04;100450.44;;;13.82;100.00
37610;BME280;23457;51.966;8.230;2022-10-16T04:18:31;100453.06;;;13.91;100.00
37610;BME280;23457;51.966;8.230;2022-10-16T04:21:05;100470.47;;;13.82;100.00
37610;BME280;23457;51.966;8.230;2022-10-16T04:23:33;100476.59;;;13.93;100.00
37610;BME280;23457;51.966;8.230;2022-10-16T04:26:00;100477.41;;;13.93;100.00
37610;BME280;23457;51.966;8.230;2022-10-16T04:28:27;100483.53;;;14.02;100.00
37610;BME280;23457;51.966;8.230;2022-10-16T04:30:54;100486.97;;;14.10;100.00
37610;BME280;23457;51.966;8.230;2022-10-16T04:33:21;100481.75;;;14.07;100.00
37610;BME280;23457;51.966;8.230;2022-10-16T04:35:48;100488.69;;;14.20;100.00
37610;BME280;23457;51.966;8.230;2022-10-16T04:38:14;100487.81;;;14.27;100.00
37610;BME280;23457;51.966;8.230;2022-10-16T04:40:42;100493.06;;;14.27;100.00
37610;BME280;23457;51.966;8.230;2022-10-16T04:43:08;100493.03;;;14.31;100.00
37610;BME280;23457;51.966;8.230;2022-10-16T04:45:35;100492.19;;;14.31;100.00
37610;BME280;23457;51.966;8.230;2022-10-16T04:48:02;100490.41;;;14.33;100.00
37610;BME280;23457;51.966;8.230;2022-10-16T04:50:29;100485.22;;;14.27;100.00
37610;BME280;23457;51.966;8.230;2022-10-16T04:53:05;100509.59;;;14.24;100.00
37610;BME280;23457;51.966;8.230;2022-10-16T04:55:32;100504.38;;;14.24;100.00
37610;BME280;23457;51.966;8.230;2022-10-16T04:57:59;100507.00;;;14.23;100.00
37610;BME280;23457;51.966;8.230;2022-10-16T05:00:26;100507.00;;;14.24;100.00
37610;BME280;23457;51.966;8.230;2022-10-16T05:02:52;100512.25;;;14.17;100.00
37610;BME280;23457;51.966;8.230;2022-10-16T05:05:19;100514.84;;;14.29;100.00
37610;BME280;23457;51.966;8.230;2022-10-16T05:07:48;100511.31;;;14.36;100.00
37610;BME280;23457;51.966;8.230;2022-10-16T05:10:16;100510.47;;;14.28;100.00
37610;BME280;23457;51.966;8.230;2022-10-16T05:12:43;100512.22;;;14.26;100.00
37610;BME280;23457;51.966;8.230;2022-10-16T05:15:10;100499.16;;;14.29;100.00
37610;BME280;23457;51.966;8.230;2022-10-16T05:17:37;100505.22;;;14.34;100.00
37610;BME280;23457;51.966;8.230;2022-10-16T05:20:10;100521.81;;;14.27;100.00
37610;BME280;23457;51.966;8.230;2022-10-16T05:22:37;100525.28;;;14.27;100.00
37610;BME280;23457;51.966;8.230;2022-10-16T05:25:04;100523.56;;;14.28;100.00
37610;BME280;23457;51.966;8.230;2022-10-16T05:27:31;100532.28;;;14.30;100.00
37610;BME280;23457;51.966;8.230;2022-10-16T05:29:58;100525.28;;;14.29;100.00
37610;BME280;23457;51.966;8.230;2022-10-16T05:32:24;100533.16;;;14.17;100.00
37610;BME280;23457;51.966;8.230;2022-10-16T05:34:51;100521.81;;;14.21;100.00
37610;BME280;23457;51.966;8.230;2022-10-16T05:37:18;100520.94;;;14.25;100.00
37610;BME280;23457;51.966;8.230;2022-10-16T05:39:44;100527.91;;;14.08;100.00
37610;BME280;23457;51.966;8.230;2022-10-16T05:42:11;100540.13;;;14.12;100.00
37610;BME280;23457;51.966;8.230;2022-10-16T05:44:38;100537.50;;;13.93;100.00
37610;BME280;23457;51.966;8.230;2022-10-16T05:47:04;100545.34;;;13.96;100.00
37610;BME280;23457;51.966;8.230;2022-10-16T05:49:31;100542.72;;;14.07;100.00
37610;BME280;23457;51.966;8.230;2022-10-16T05:51:57;100550.59;;;14.15;100.00
37610;BME280;23457;51.966;8.230;2022-10-16T05:54:24;100552.34;;;14.01;100.00
37610;BME280;23457;51.966;8.230;2022-10-16T05:56:51;100547.09;;;14.10;100.00
37610;BME280;23457;51.966;8.230;2022-10-16T05:59:17;100564.53;;;14.17;100.00
37610;BME280;23457;51.966;8.230;2022-10-16T06:01:44;100553.19;;;14.09;100.00
37610;BME280;23457;51.966;8.230;2022-10-16T06:04:10;100560.19;;;14.02;100.00
37610;BME280;23457;51.966;8.230;2022-10-16T06:06:37;100568.03;;;14.05;100.00
37610;BME280;23457;51.966;8.230;2022-10-16T06:09:04;100565.38;;;14.10;100.00
37610;BME280;23457;51.966;8.230;2022-10-16T06:11:32;100574.97;;;14.14;100.00
37610;BME280;23457;51.966;8.230;2022-10-16T06:14:00;100565.38;;;14.11;100.00
37610;BME280;23457;51.966;8.230;2022-10-16T06:16:29;100578.44;;;14.07;100.00
37610;BME280;23457;51.966;8.230;2022-10-16T06:18:56;100570.59;;;14.22;100.00
37610;BME280;23457;51.966;8.230;2022-10-16T06:21:25;100569.72;;;14.08;100.00
37610;BME280;23457;51.966;8.230;2022-10-16T06:23:53;100571.47;;;14.21;100.00
37610;BME280;23457;51.966;8.230;2022-10-16T06:26:22;100579.28;;;14.33;100.00
37610;BME280;23457;51.966;8.230;2022-10-16T06:28:49;100578.44;;;14.31;100.00
37610;BME280;23457;51.966;8.230;2022-10-16T06:31:16;100581.06;;;14.29;100.00
37610;BME280;23457;51.966;8.230;2022-10-16T06:33:43;100585.44;;;14.30;100.00
37610;BME280;23457;51.966;8.230;2022-10-16T06:36:14;100601.09;;;14.47;100.00
37610;BME280;23457;51.966;8.230;2022-10-16T06:38:41;100608.09;;;14.42;100.00
37610;BME280;23457;51.966;8.230;2022-10-16T06:41:11;100614.16;;;14.26;100.00
37610;BME280;23457;51.966;8.230;2022-10-16T06:43:38;100608.06;;;14.30;100.00
37610;BME280;23457;51.966;8.230;2022-10-16T06:46:07;100611.56;;;14.47;100.00
37610;BME280;23457;51.966;8.230;2022-10-16T06:48:36;100618.50;;;14.60;100.00
37610;BME280;23457;51.966;8.230;2022-10-16T06:51:06;100623.75;;;14.63;100.00
37610;BME280;23457;51.966;8.230;2022-10-16T06:53:34;100631.59;;;14.60;100.00
37610;BME280;23457;51.966;8.230;2022-10-16T06:56:19;100633.34;;;14.64;100.00
37610;BME280;23457;51.966;8.230;2022-10-16T06:58:47;100642.94;;;14.68;100.00
37610;BME280;23457;51.966;8.230;2022-10-16T07:01:16;100631.56;;;14.69;100.00
37610;BME280;23457;51.966;8.230;2022-10-16T07:03:44;100638.50;;;14.86;100.00
37610;BME280;23457;51.966;8.230;2022-10-16T07:06:14;100647.25;;;14.79;100.00
37610;BME280;23457;51.966;8.230;2022-10-16T07:08:42;100633.31;;;14.75;100.00
37610;BME280;23457;51.966;8.230;2022-10-16T07:11:12;100643.78;;;14.69;100.00
37610;BME280;23457;51.966;8.230;2022-10-16T07:13:40;100644.63;;;14.79;100.00
37610;BME280;23457;51.966;8.230;2022-10-16T07:16:13;100649.88;;;14.79;100.00
37610;BME280;23457;51.966;8.230;2022-10-16T07:18:40;100661.16;;;15.00;100.00
37610;BME280;23457;51.966;8.230;2022-10-16T07:21:10;100661.97;;;15.13;100.00
37610;BME280;23457;51.966;8.230;2022-10-16T07:23:38;100663.72;;;15.17;100.00
37610;BME280;23457;51.966;8.230;2022-10-16T07:26:09;100674.97;;;15.34;100.00
37610;BME280;23457;51.966;8.230;2022-10-16T07:28:37;100680.22;;;15.33;100.00
37610;BME280;23457;51.966;8.230;2022-10-16T07:31:09;100676.72;;;15.40;100.00
37610;BME280;23457;51.966;8.230;2022-10-16T07:33:38;100684.50;;;15.54;100.00
37610;BME280;23457;51.966;8.230;2022-10-16T07:36:05;100701.16;;;15.45;100.00
37610;BME280;23457;51.966;8.230;2022-10-16T07:38:32;100696.72;;;15.53;100.00
37610;BME280;23457;51.966;8.230;2022-10-16T07:41:00;100716.81;;;15.63;100.00
37610;BME280;23457;51.966;8.230;2022-10-16T07:43:28;100714.16;;;15.66;100.00
37610;BME280;23457;51.966;8.230;2022-10-16T07:45:55;100722.09;;;15.39;100.00
37610;BME280;23457;51.966;8.230;2022-10-16T07:48:31;100726.41;;;15.54;100.00
37610;BME280;23457;51.966;8.230;2022-10-16T07:51:03;100731.69;;;15.55;100.00
37610;BME280;23457;51.966;8.230;2022-10-16T07:53:31;100724.72;;;15.34;100.00
37610;BME280;23457;51.966;8.230;2022-10-16T07:56:03;100728.22;;;15.44;100.00
37610;BME280;23457;51.966;8.230;2022-10-16T07:58:30;100729.91;;;15.51;100.00
37610;BME280;23457;51.966;8.230;2022-10-16T08:00:57;100729.97;;;15.37;100.00
37610;BME280;23457;51.966;8.230;2022-10-16T08:03:25;100740.44;;;15.44;100.00
37610;BME280;23457;51.966;8.230;2022-10-16T08:05:52;100731.72;;;15.41;100.00
37610;BME280;23457;51.966;8.230;2022-10-16T08:08:19;100737.75;;;15.60;100.00
37610;BME280;23457;51.966;8.230;2022-10-16T08:10:46;100737.75;;;15.59;100.00
37610;BME280;23457;51.966;8.230;2022-10-16T08:13:12;100737.75;;;15.66;100.00
37610;BME280;23457;51.966;8.230;2022-10-16T08:15:42;100756.84;;;15.93;100.00
37610;BME280;23457;51.966;8.230;2022-10-16T08:18:11;100749.78;;;16.05;100.00
37610;BME280;23457;51.966;8.230;2022-10-16T08:20:39;100754.19;;;15.97;100.00
37610;BME280;23457;51.966;8.230;2022-10-16T08:23:06;100758.53;;;15.97;100.00
37610;BME280;23457;51.966;8.230;2022-10-16T08:25:36;100759.41;;;16.03;100.00
37610;BME280;23457;51.966;8.230;2022-10-16T08:28:05;100754.16;;;16.03;100.00
37610;BME280;23457;51.966;8.230;2022-10-16T08:30:32;100773.38;;;16.02;100.00
37610;BME280;23457;51.966;8.230;2022-10-16T08:33:00;100765.47;;;16.10;100.00
37610;BME280;23457;51.966;8.230;2022-10-16T08:35:27;100757.59;;;16.10;100.00
37610;BME280;23457;51.966;8.230;2022-10-16T08:37:54;100763.63;;;16.27;99.76
37610;BME280;23457;51.966;8.230;2022-10-16T08:40:25;100773.22;;;16.30;99.54
37610;BME280;23457;51.966;8.230;2022-10-16T08:46:14;100800.34;;;16.26;98.29
37610;BME280;23457;51.966;8.230;2022-10-16T08:48:49;100801.03;;;16.55;97.46
37610;BME280;23457;51.966;8.230;2022-10-16T08:51:35;100800.16;;;16.53;97.36
37610;BME280;23457;51.966;8.230;2022-10-16T08:54:29;100806.34;;;16.46;96.85
37610;BME280;23457;51.966;8.230;2022-10-16T08:57:07;100809.78;;;16.51;96.70
37610;BME280;23457;51.966;8.230;2022-10-16T08:59:35;100804.50;;;16.63;96.00
37610;BME280;23457;51.966;8.230;2022-10-16T09:02:02;100814.03;;;16.76;95.36
37610;BME280;23457;51.966;8.230;2022-10-16T09:07:30;100816.72;;;16.70;94.30
37610;BME280;23457;51.966;8.230;2022-10-16T09:13:29;100824.59;;;16.70;95.28
37610;BME280;23457;51.966;8.230;2022-10-16T09:19:15;100826.81;;;17.16;93.28
37610;BME280;23457;51.966;8.230;2022-10-16T09:21:44;100838.06;;;17.29;92.87
37610;BME280;23457;51.966;8.230;2022-10-16T09:24:17;100835.53;;;17.21;92.57
37610;BME280;23457;51.966;8.230;2022-10-16T09:26:46;100836.53;;;17.05;92.14
37610;BME280;23457;51.966;8.230;2022-10-16T09:29:14;100846.19;;;17.04;92.33
37610;BME280;23457;51.966;8.230;2022-10-16T09:31:42;100837.41;;;17.07;90.46
37610;BME280;23457;51.966;8.230;2022-10-16T09:34:40;100835.47;;;17.24;90.18
37610;BME280;23457;51.966;8.230;2022-10-16T09:37:10;100843.31;;;17.30;90.69
37610;BME280;23457;51.966;8.230;2022-10-16T09:39:46;100840.59;;;17.41;89.81
37610;BME280;23457;51.966;8.230;2022-10-16T09:42:31;100823.97;;;17.37;89.35
37610;BME280;23457;51.966;8.230;2022-10-16T09:44:58;100840.72;;;17.24;87.81
37610;BME280;23457;51.966;8.230;2022-10-16T09:47:27;100841.50;;;17.37;86.19
37610;BME280;23457;51.966;8.230;2022-10-16T09:50:03;100835.44;;;17.30;86.81
37610;BME280;23457;51.966;8.230;2022-10-16T09:52:33;100833.59;;;17.37;86.62
37610;BME280;23457;51.966;8.230;2022-10-16T09:55:09;100845.72;;;17.50;86.87
37610;BME280;23457;51.966;8.230;2022-10-16T09:57:52;100853.50;;;17.61;85.10
37610;BME280;23457;51.966;8.230;2022-10-16T10:00:23;100845.69;;;17.54;84.51
37610;BME280;23457;51.966;8.230;2022-10-16T10:02:50;100864.56;;;17.96;85.49
37610;BME280;23457;51.966;8.230;2022-10-16T10:05:24;100853.31;;;17.82;84.70
37610;BME280;23457;51.966;8.230;2022-10-16T10:08:02;100853.38;;;17.74;83.93
37610;BME280;23457;51.966;8.230;2022-10-16T10:10:40;100871.47;;;18.03;83.74
37610;BME280;23457;51.966;8.230;2022-10-16T10:13:22;100875.97;;;17.94;83.29
37610;BME280;23457;51.966;8.230;2022-10-16T10:15:51;100877.59;;;18.02;82.18
37610;BME280;23457;51.966;8.230;2022-10-16T10:18:19;100869.00;;;17.88;82.09
37610;BME280;23457;51.966;8.230;2022-10-16T10:20:58;100875.72;;;18.13;81.69
37610;BME280;23457;51.966;8.230;2022-10-16T10:23:28;100870.38;;;18.22;81.71
37610;BME280;23457;51.966;8.230;2022-10-16T10:26:09;100877.59;;;18.02;79.90
37610;BME280;23457;51.966;8.230;2022-10-16T10:28:55;100881.84;;;18.14;81.33
37610;BME280;23457;51.966;8.230;2022-10-16T10:31:39;100881.75;;;18.23;80.82
37610;BME280;23457;51.966;8.230;2022-10-16T10:34:26;100880.03;;;18.19;81.15
37610;BME280;23457;51.966;8.230;2022-10-16T10:37:05;100878.13;;;18.32;79.99
37610;BME280;23457;51.966;8.230;2022-10-16T10:39:42;100879.03;;;18.29;78.91
37610;BME280;23457;51.966;8.230;2022-10-16T10:42:29;100887.63;;;18.43;77.72
37610;BME280;23457;51.966;8.230;2022-10-16T10:45:17;100893.94;;;18.29;76.01
37610;BME280;23457;51.966;8.230;2022-10-16T10:48:14;100894.66;;;18.40;75.71
37610;BME280;23457;51.966;8.230;2022-10-16T10:50:53;100898.25;;;18.36;77.24
37610;BME280;23457;51.966;8.230;2022-10-16T10:59:52;100903.28;;;18.51;75.71
37610;BME280;23457;51.966;8.230;2022-10-16T11:05:43;100910.13;;;17.98;74.55
37610;BME280;23457;51.966;8.230;2022-10-16T11:08:45;100906.22;;;18.30;73.64
37610;BME280;23457;51.966;8.230;2022-10-16T11:11:15;100902.38;;;18.55;74.73
37610;BME280;23457;51.966;8.230;2022-10-16T11:13:54;100907.59;;;18.61;74.42
37610;BME280;23457;51.966;8.230;2022-10-16T11:16:33;100908.97;;;18.86;74.08
37610;BME280;23457;51.966;8.230;2022-10-16T11:21:56;100906.97;;;19.01;71.41
37610;BME280;23457;51.966;8.230;2022-10-16T11:24:40;100901.78;;;18.98;71.70
37610;BME280;23457;51.966;8.230;2022-10-16T11:27:11;100915.13;;;18.85;70.01
37610;BME280;23457;51.966;8.230;2022-10-16T11:29:48;100913.22;;;18.96;70.65
37610;BME280;23457;51.966;8.230;2022-10-16T11:32:22;100919.78;;;19.25;70.08
37610;BME280;23457;51.966;8.230;2022-10-16T11:35:02;100920.63;;;19.25;70.82
37610;BME280;23457;51.966;8.230;2022-10-16T11:37:40;100909.63;;;19.54;71.54
37610;BME280;23457;51.966;8.230;2022-10-16T11:40:19;100916.38;;;19.71;69.30
37610;BME280;23457;51.966;8.230;2022-10-16T11:42:57;100920.84;;;19.65;69.68
37610;BME280;23457;51.966;8.230;2022-10-16T11:45:31;100912.25;;;20.02;71.09
37610;BME280;23457;51.966;8.230;2022-10-16T11:51:02;100905.25;;;20.44;67.10
37610;BME280;23457;51.966;8.230;2022-10-16T11:54:28;100909.63;;;20.47;66.41
37610;BME280;23457;51.966;8.230;2022-10-16T11:56:26;100904.75;;;20.25;65.58
37610;BME280;23457;51.966;8.230;2022-10-16T12:04:40;100915.19;;;20.73;68.35
37610;BME280;23457;51.966;8.230;2022-10-16T12:07:15;100916.75;;;20.82;64.35
37610;BME280;23457;51.966;8.230;2022-10-16T12:09:46;100911.88;;;21.02;65.45
37610;BME280;23457;51.966;8.230;2022-10-16T12:15:27;100928.66;;;21.38;64.90
37610;BME280;23457;51.966;8.230;2022-10-16T12:18:24;100927.38;;;21.16;63.69
37610;BME280;23457;51.966;8.230;2022-10-16T12:20:59;100921.09;;;21.23;64.31
37610;BME280;23457;51.966;8.230;2022-10-16T12:23:47;100931.09;;;21.08;64.57
37610;BME280;23457;51.966;8.230;2022-10-16T12:26:26;100933.75;;;21.07;64.14
37610;BME280;23457;51.966;8.230;2022-10-16T12:28:55;100929.31;;;20.70;64.53
37610;BME280;23457;51.966;8.230;2022-10-16T12:31:23;100940.56;;;20.80;66.33
37610;BME280;23457;51.966;8.230;2022-10-16T12:33:58;100938.06;;;20.74;63.96
37610;BME280;23457;51.966;8.230;2022-10-16T12:36:31;100933.94;;;20.61;67.15
37610;BME280;23457;51.966;8.230;2022-10-16T12:38:59;100940.44;;;20.46;65.31
37610;BME280;23457;51.966;8.230;2022-10-16T12:41:27;100946.53;;;20.50;65.76
37610;BME280;23457;51.966;8.230;2022-10-16T12:43:55;100935.97;;;20.50;66.75
37610;BME280;23457;51.966;8.230;2022-10-16T12:46:39;100939.22;;;20.61;66.16
37610;BME280;23457;51.966;8.230;2022-10-16T12:51:41;100950.94;;;20.89;64.06
37610;BME280;23457;51.966;8.230;2022-10-16T12:54:28;100958.38;;;21.09;62.65
37610;BME280;23457;51.966;8.230;2022-10-16T12:57:13;100952.88;;;21.18;62.76
37610;BME280;23457;51.966;8.230;2022-10-16T13:17:23;100963.81;;;21.75;60.84
37610;BME280;23457;51.966;8.230;2022-10-16T13:20:09;100971.16;;;22.00;60.41
37610;BME280;23457;51.966;8.230;2022-10-16T13:22:45;100968.78;;;21.88;58.25
37610;BME280;23457;51.966;8.230;2022-10-16T13:28:12;100968.91;;;21.83;59.14
37610;BME280;23457;51.966;8.230;2022-10-16T13:30:42;100980.53;;;21.77;57.21
37610;BME280;23457;51.966;8.230;2022-10-16T13:33:15;100971.00;;;21.70;57.85
37610;BME280;23457;51.966;8.230;2022-10-16T13:35:52;100976.31;;;21.35;58.25
37610;BME280;23457;51.966;8.230;2022-10-16T13:38:27;100987.22;;;21.20;58.62
37610;BME280;23457;51.966;8.230;2022-10-16T13:40:56;100991.09;;;21.03;59.73
37610;BME280;23457;51.966;8.230;2022-10-16T13:43:50;100985.06;;;20.98;61.01
37610;BME280;23457;51.966;8.230;2022-10-16T13:46:22;100979.44;;;21.14;60.81
37610;BME280;23457;51.966;8.230;2022-10-16T13:49:03;100986.25;;;21.24;61.02
37610;BME280;23457;51.966;8.230;2022-10-16T13:51:31;100983.00;;;21.11;60.60
37610;BME280;23457;51.966;8.230;2022-10-16T13:53:58;100989.63;;;20.90;60.64
37610;BME280;23457;51.966;8.230;2022-10-16T13:56:27;100995.53;;;20.63;60.26
37610;BME280;23457;51.966;8.230;2022-10-16T13:59:04;100984.34;;;20.90;61.90
37610;BME280;23457;51.966;8.230;2022-10-16T14:01:40;100983.28;;;20.99;61.12
37610;BME280;23457;51.966;8.230;2022-10-16T14:04:09;100989.53;;;20.95;61.82
37610;BME280;23457;51.966;8.230;2022-10-16T14:06:41;101005.84;;;20.75;61.70
37610;BME280;23457;51.966;8.230;2022-10-16T14:09:21;101007.44;;;20.82;61.93
37610;BME280;23457;51.966;8.230;2022-10-16T14:11:50;101005.31;;;20.58;62.13